Time;durP1;ratioP1;P1;durP2;ratioP2;P2;SDS_P1;SDS_P2;PMS_P1;PMS_P2;Temp;Humidity;BMP_temperature;BMP_pressure;BME280_temperature;BME280_humidity;BME280_pressure;Samples;Min_cycle;Max_cycle;Signal;HPM_P1;HPM_P2
2022/07/02 00:04:51;;;;;;;0.00;0.00;;;17.90;59.40;20.10;94460.00;;;;10525953;28;45116;-63
2022/07/02 00:10:11;;;;;;;0.10;0.10;;;17.90;59.40;20.10;94459.00;;;;10524973;28;45269;-63
2022/07/02 00:15:34;;;;;;;0.00;0.00;;;17.90;59.40;20.10;94457.00;;;;10525308;28;45787;-63
2022/07/02 00:20:55;;;;;;;0.00;0.00;;;17.90;59.40;20.10;94442.00;;;;10525269;28;45128;-63
2022/07/02 00:26:21;;;;;;;0.00;0.00;;;17.90;59.40;20.10;94454.00;;;;10524755;28;45672;-63
2022/07/02 00:31:43;;;;;;;0.00;0.00;;;17.90;59.40;20.10;94448.00;;;;10524493;28;45148;-63
2022/07/02 00:37:06;;;;;;;0.10;0.00;;;17.90;59.40;20.10;94452.00;;;;10524521;28;45100;-63
2022/07/02 00:42:27;;;;;;;0.00;0.00;;;17.90;59.40;20.10;94456.00;;;;10524190;28;45118;-63
2022/07/02 00:47:50;;;;;;;0.47;0.10;;;17.90;59.40;20.10;94446.00;;;;10524128;28;45233;-63
2022/07/02 00:53:10;;;;;;;0.22;0.00;;;17.90;59.40;20.10;94446.00;;;;10523905;28;45161;-63
2022/07/02 00:58:33;;;;;;;0.00;0.00;;;17.90;59.40;20.10;94442.00;;;;10523425;28;45137;-63
2022/07/02 01:03:59;;;;;;;0.10;0.00;;;17.90;59.40;20.00;94450.00;;;;10518971;28;45291;-64
2022/07/02 01:14:59;;;;;;;0.10;0.05;;;17.90;59.40;20.00;94451.00;;;;10523735;28;45415;-63
2022/07/02 01:20:21;;;;;;;0.00;0.00;;;17.90;59.40;20.00;94449.00;;;;10522876;28;45218;-63
2022/07/02 01:25:50;;;;;;;0.03;0.00;;;17.90;59.40;20.00;94439.00;;;;10522848;28;45687;-63
2022/07/02 01:31:11;;;;;;;0.03;0.00;;;17.90;59.40;20.00;94442.00;;;;10522994;28;45212;-63
2022/07/02 01:36:31;;;;;;;0.00;0.00;;;17.90;60.10;20.00;94446.00;;;;10522775;28;45185;-63
2022/07/02 01:41:53;;;;;;;0.32;0.00;;;17.90;59.40;20.00;94448.00;;;;10522338;28;45186;-63
2022/07/02 01:47:15;;;;;;;0.10;0.08;;;17.90;59.40;20.00;94444.00;;;;10522165;28;45881;-63
2022/07/02 01:52:36;;;;;;;0.00;0.00;;;17.90;59.40;20.00;94426.00;;;;10521804;28;45240;-64
2022/07/02 01:57:58;;;;;;;0.10;0.10;;;17.90;60.10;20.00;94437.00;;;;10522709;28;45346;-63
2022/07/02 02:03:18;;;;;;;0.00;0.00;;;17.90;59.40;20.00;94442.00;;;;10521415;28;45174;-63
2022/07/02 02:08:39;;;;;;;0.13;0.10;;;17.90;59.40;20.00;94444.00;;;;10521554;28;45201;-63
2022/07/02 02:14:01;;;;;;;0.10;0.10;;;17.90;59.40;20.00;94427.00;;;;10520878;27;45175;-64
2022/07/02 02:19:21;;;;;;;0.00;0.00;;;17.90;59.40;20.00;94443.00;;;;10521109;28;45144;-63
2022/07/02 02:24:42;;;;;;;0.20;0.10;;;17.90;59.40;20.00;94439.00;;;;10521610;28;45242;-63
2022/07/02 02:30:05;;;;;;;0.30;0.00;;;17.90;59.40;20.00;94446.00;;;;10520522;28;45692;-63
2022/07/02 02:35:25;;;;;;;0.00;0.00;;;17.90;59.40;20.00;94441.00;;;;10520483;28;45746;-64
2022/07/02 02:40:46;;;;;;;0.03;0.03;;;17.90;59.40;20.00;94449.00;;;;10520121;28;44899;-63
2022/07/02 02:46:08;;;;;;;0.10;0.00;;;17.80;59.40;20.00;94444.00;;;;10519964;28;45116;-63
2022/07/02 02:51:28;;;;;;;0.00;0.00;;;17.80;59.40;20.00;94441.00;;;;10519769;28;45233;-63
2022/07/02 02:56:49;;;;;;;0.10;0.00;;;17.80;59.40;20.00;94449.00;;;;10520313;28;45313;-63
2022/07/02 03:02:10;;;;;;;0.10;0.00;;;17.80;59.40;20.00;94434.00;;;;10520231;28;45171;-63
2022/07/02 03:07:31;;;;;;;0.00;0.00;;;17.80;59.40;20.00;94448.00;;;;10519449;28;45151;-63
2022/07/02 03:12:51;;;;;;;0.77;0.00;;;17.90;59.40;20.00;94443.00;;;;10519843;28;45284;-63
2022/07/02 03:18:13;;;;;;;0.13;0.05;;;17.90;59.50;20.00;94437.00;;;;10519893;28;45501;-64
2022/07/02 03:23:34;;;;;;;0.10;0.10;;;17.80;59.40;19.90;94427.00;;;;10519111;27;45842;-63
2022/07/02 03:28:54;;;;;;;0.13;0.10;;;17.80;59.40;20.00;94447.00;;;;10526060;28;45126;-63
2022/07/02 03:34:16;;;;;;;0.10;0.00;;;17.80;59.40;20.00;94443.00;;;;10526794;28;45683;-63
2022/07/02 03:39:36;;;;;;;0.10;0.00;;;17.80;59.40;19.90;94449.00;;;;10526256;28;45524;-64
2022/07/02 03:44:57;;;;;;;0.10;0.05;;;17.80;59.40;19.90;94455.00;;;;10526446;28;45111;-63
2022/07/02 03:50:19;;;;;;;0.00;0.00;;;17.80;59.40;19.90;94447.00;;;;10526041;28;45704;-63
2022/07/02 03:55:39;;;;;;;0.13;0.08;;;17.80;59.40;19.90;94466.00;;;;10525907;28;45256;-63
2022/07/02 04:01:00;;;;;;;0.00;0.00;;;17.80;59.40;19.90;94465.00;;;;10526284;28;45676;-63
2022/07/02 04:06:22;;;;;;;0.10;0.10;;;17.80;59.40;19.90;94466.00;;;;10525355;28;45487;-63
2022/07/02 04:11:42;;;;;;;0.03;0.03;;;17.80;60.10;19.90;94457.00;;;;10525489;28;45332;-63
2022/07/02 04:17:03;;;;;;;0.10;0.10;;;17.80;59.40;19.90;94458.00;;;;10525035;28;45263;-63
2022/07/02 04:22:25;;;;;;;0.00;0.00;;;17.80;59.40;19.90;94459.00;;;;10525495;28;45511;-63
2022/07/02 04:27:45;;;;;;;0.00;0.00;;;17.80;59.40;19.90;94458.00;;;;10524803;28;45755;-63
2022/07/02 04:33:06;;;;;;;0.10;0.00;;;17.80;59.40;19.90;94457.00;;;;10524711;28;45123;-63
2022/07/02 04:38:28;;;;;;;0.10;0.10;;;17.80;59.40;19.90;94458.00;;;;10524048;27;45186;-63
2022/07/02 04:43:48;;;;;;;0.00;0.00;;;17.80;59.40;19.90;94450.00;;;;10524334;28;45123;-63
2022/07/02 04:49:09;;;;;;;0.00;0.00;;;17.80;59.40;19.90;94459.00;;;;10524120;28;45411;-63
2022/07/02 04:54:31;;;;;;;0.10;0.10;;;17.80;59.40;19.90;94456.00;;;;10523766;28;45800;-64
2022/07/02 04:59:51;;;;;;;0.10;0.08;;;17.80;59.40;19.90;94464.00;;;;10523331;28;45174;-63
2022/07/02 05:05:11;;;;;;;0.00;0.00;;;17.80;59.40;19.90;94462.00;;;;10523405;28;45290;-63
2022/07/02 05:10:33;;;;;;;0.08;0.08;;;17.80;59.40;19.90;94462.00;;;;10523640;28;45693;-63
2022/07/02 05:15:54;;;;;;;0.00;0.00;;;17.80;60.00;19.90;94457.00;;;;10523183;28;45157;-63
2022/07/02 05:21:14;;;;;;;0.08;0.08;;;17.80;59.40;19.90;94457.00;;;;10523025;28;45783;-63
2022/07/02 05:26:36;;;;;;;0.32;0.10;;;17.80;59.40;19.90;94441.00;;;;10522607;28;45111;-63
2022/07/02 05:31:57;;;;;;;0.00;0.00;;;17.80;59.40;19.90;94454.00;;;;10522481;28;45208;-63
2022/07/02 05:37:18;;;;;;;0.05;0.00;;;17.80;59.30;19.90;94446.00;;;;10522636;28;45198;-63
2022/07/02 05:42:40;;;;;;;0.10;0.10;;;17.80;59.40;19.90;94442.00;;;;10522616;28;45204;-66
2022/07/02 05:48:00;;;;;;;0.10;0.10;;;17.80;59.30;19.90;94440.00;;;;10521308;27;45684;-62
2022/07/02 05:53:21;;;;;;;0.00;0.00;;;17.80;59.30;19.90;94449.00;;;;10521684;28;45767;-65
2022/07/02 05:58:42;;;;;;;0.00;0.00;;;17.80;59.30;19.90;94435.00;;;;10521649;28;45177;-63
2022/07/02 06:04:04;;;;;;;0.03;0.03;;;17.80;60.00;19.90;94445.00;;;;10522154;28;45213;-63
2022/07/02 06:09:24;;;;;;;0.00;0.00;;;17.80;59.30;19.90;94442.00;;;;10521145;28;45386;-61
2022/07/02 06:14:46;;;;;;;0.10;0.10;;;17.80;59.30;19.90;94440.00;;;;10521746;28;45788;-61
2022/07/02 06:20:08;;;;;;;0.10;0.00;;;17.80;59.30;19.90;94444.00;;;;10520123;28;45179;-62
2022/07/02 06:25:29;;;;;;;0.03;0.00;;;17.80;59.30;19.90;94454.00;;;;10520788;28;45163;-62
2022/07/02 06:30:52;;;;;;;0.00;0.00;;;17.80;59.30;19.90;94436.00;;;;10520716;28;45355;-63
2022/07/02 06:36:14;;;;;;;0.00;0.00;;;17.80;59.30;19.90;94435.00;;;;10520643;28;45195;-62
2022/07/02 06:47:17;;;;;;;0.00;0.00;;;17.80;59.30;19.90;94421.00;;;;10519983;28;45269;-65
2022/07/02 06:52:38;;;;;;;0.00;0.00;;;17.80;59.30;19.90;94415.00;;;;10518660;28;45188;-62
2022/07/02 06:57:59;;;;;;;0.20;0.00;;;17.80;59.30;19.90;94417.00;;;;10519906;28;45703;-65
2022/07/02 07:03:20;;;;;;;0.00;0.00;;;17.80;59.20;19.90;94422.00;;;;10519530;28;45770;-63
2022/07/02 07:08:41;;;;;;;0.20;0.00;;;17.80;59.20;19.90;94414.00;;;;10519841;28;45326;-61
2022/07/02 07:14:02;;;;;;;0.10;0.03;;;17.80;59.30;19.90;94420.00;;;;10520308;28;45272;-61
2022/07/02 07:19:24;;;;;;;0.00;0.00;;;17.80;59.20;19.90;94428.00;;;;10519467;28;45785;-62
2022/07/02 07:24:44;;;;;;;0.00;0.00;;;17.80;59.20;19.90;94435.00;;;;10519642;28;45121;-62
2022/07/02 07:30:06;;;;;;;0.05;0.00;;;17.80;59.20;19.90;94436.00;;;;10518889;28;45234;-62
2022/07/02 07:35:28;;;;;;;0.10;0.00;;;17.80;59.70;19.90;94413.00;;;;10518630;28;45692;-63
2022/07/02 07:40:48;;;;;;;0.08;0.05;;;17.80;59.20;19.90;94426.00;;;;10518425;28;45137;-62
2022/07/02 07:46:09;;;;;;;0.00;0.00;;;17.80;59.20;19.90;94410.00;;;;10518877;28;45180;-62
2022/07/02 07:51:31;;;;;;;0.00;0.00;;;17.80;59.30;19.90;94400.00;;;;10518469;28;45196;-62
2022/07/02 07:56:52;;;;;;;0.00;0.00;;;17.80;59.20;19.90;94400.00;;;;10518077;28;45167;-62
2022/07/02 08:02:13;;;;;;;0.10;0.00;;;17.80;59.20;19.90;94393.00;;;;10518591;28;45551;-62
2022/07/02 08:07:38;;;;;;;0.00;0.00;;;17.80;59.30;19.90;94383.00;;;;10518451;28;45691;-64
2022/07/02 08:12:58;;;;;;;0.20;0.00;;;17.80;59.20;19.90;94389.00;;;;10522201;27;45162;-63
2022/07/02 08:18:19;;;;;;;0.00;0.00;;;17.80;59.20;19.90;94382.00;;;;10524855;28;45218;-61
2022/07/02 08:23:41;;;;;;;0.03;0.00;;;17.70;59.20;19.90;94396.00;;;;10525165;28;45361;-62
2022/07/02 08:29:02;;;;;;;0.00;0.00;;;17.80;59.20;19.90;94398.00;;;;10524288;28;45883;-64
2022/07/02 08:34:22;;;;;;;0.00;0.00;;;17.80;59.10;19.90;94384.00;;;;10524618;28;45210;-62
2022/07/02 08:39:44;;;;;;;0.00;0.00;;;17.80;59.20;19.90;94390.00;;;;10524227;28;45238;-61
2022/07/02 08:45:06;;;;;;;0.00;0.00;;;17.80;59.20;19.90;94383.00;;;;10524461;28;45199;-62
2022/07/02 08:50:27;;;;;;;0.28;0.10;;;17.80;59.20;19.90;94380.00;;;;10524274;28;45793;-62
2022/07/02 08:55:51;;;;;;;0.10;0.00;;;17.80;59.20;19.90;94386.00;;;;10523747;28;45060;-62
2022/07/02 09:01:13;;;;;;;0.05;0.03;;;17.80;59.10;19.90;94370.00;;;;10524240;28;45868;-62
2022/07/02 09:06:37;;;;;;;0.00;0.00;;;17.80;59.10;19.90;94373.00;;;;10523354;28;45222;-62
2022/07/02 09:11:59;;;;;;;0.00;0.00;;;17.80;59.20;19.90;94376.00;;;;10523530;28;45202;-65
2022/07/02 09:17:19;;;;;;;0.00;0.00;;;17.80;59.10;19.90;94378.00;;;;10523710;28;45326;-62
2022/07/02 09:22:43;;;;;;;0.03;0.00;;;17.80;59.20;19.90;94380.00;;;;10521718;27;45214;-63
2022/07/02 09:28:06;;;;;;;0.00;0.00;;;17.80;59.10;19.90;94386.00;;;;10522804;28;45818;-64
2022/07/02 09:33:31;;;;;;;0.20;0.10;;;17.80;59.10;19.90;94392.00;;;;10522509;28;45051;-62
2022/07/02 09:38:55;;;;;;;0.00;0.00;;;17.80;59.10;19.90;94382.00;;;;10521738;28;45861;-62
2022/07/02 09:44:16;;;;;;;0.03;0.03;;;17.80;59.10;19.90;94380.00;;;;10522719;28;45258;-62
2022/07/02 09:49:47;;;;;;;0.08;0.00;;;17.80;59.10;19.90;94376.00;;;;10521699;28;45222;-66
2022/07/02 09:55:19;;;;;;;0.00;0.00;;;17.80;59.10;19.90;94377.00;;;;10521861;28;45203;-62
2022/07/02 10:00:47;;;;;;;0.00;0.00;;;17.80;59.10;19.90;94381.00;;;;10521673;28;45207;-62
2022/07/02 10:06:07;;;;;;;0.20;0.00;;;17.80;59.10;19.90;94392.00;;;;10521303;28;45155;-65
2022/07/02 10:11:29;;;;;;;0.20;0.05;;;17.80;59.10;19.90;94379.00;;;;10521735;28;45754;-63
2022/07/02 10:16:53;;;;;;;0.00;0.00;;;17.80;59.10;19.90;94374.00;;;;10521394;28;45131;-63
2022/07/02 10:22:15;;;;;;;0.00;0.00;;;17.70;59.10;19.90;94383.00;;;;10521016;28;45254;-63
2022/07/02 10:27:36;;;;;;;0.10;0.10;;;17.80;59.10;19.90;94376.00;;;;10520648;28;45166;-63
2022/07/02 10:33:07;;;;;;;0.98;0.00;;;17.80;59.10;19.90;94375.00;;;;10520472;27;45207;-63
2022/07/02 10:38:29;;;;;;;0.05;0.00;;;17.80;59.10;19.90;94369.00;;;;10521171;28;45854;-63
2022/07/02 10:43:50;;;;;;;0.00;0.00;;;17.80;59.10;19.90;94358.00;;;;10520800;28;45091;-63
2022/07/02 10:49:12;;;;;;;0.00;0.00;;;17.80;59.10;19.90;94367.00;;;;10519815;28;45191;-64
2022/07/02 10:54:33;;;;;;;0.10;0.10;;;17.80;59.10;19.90;94354.00;;;;10520256;28;45298;-63
2022/07/02 10:59:54;;;;;;;0.00;0.00;;;17.70;59.00;19.90;94344.00;;;;10519816;28;45154;-64
2022/07/02 11:05:16;;;;;;;0.17;0.00;;;17.80;59.10;19.90;94354.00;;;;10519900;28;45865;-63
2022/07/02 11:10:37;;;;;;;0.10;0.00;;;17.80;59.10;19.90;94337.00;;;;10519713;28;45508;-63
2022/07/02 11:15:57;;;;;;;0.00;0.00;;;17.80;59.10;19.90;94342.00;;;;10519361;28;45167;-63
2022/07/02 11:21:20;;;;;;;0.10;0.10;;;17.80;59.00;19.90;94338.00;;;;10519465;28;45122;-62
2022/07/02 11:26:42;;;;;;;0.00;0.00;;;17.80;59.00;19.90;94333.00;;;;10519076;28;45820;-63
2022/07/02 11:32:04;;;;;;;0.00;0.00;;;17.70;58.90;19.90;94330.00;;;;10518876;28;45170;-64
2022/07/02 11:37:26;;;;;;;0.00;0.00;;;17.80;59.00;19.90;94336.00;;;;10518832;28;45918;-63
2022/07/02 11:42:47;;;;;;;0.10;0.00;;;17.80;59.00;19.90;94334.00;;;;10573270;22;45223;-62
2022/07/02 11:48:07;;;;;;;0.05;0.00;;;17.80;59.00;19.90;94325.00;;;;10565578;27;45170;-62
2022/07/02 11:53:29;;;;;;;0.00;0.00;;;17.80;59.00;19.90;94339.00;;;;10568224;27;45211;-63
2022/07/02 11:58:50;;;;;;;0.00;0.00;;;17.80;58.90;19.90;94327.00;;;;10568531;27;45943;-62
2022/07/02 12:04:13;;;;;;;0.00;0.00;;;17.80;58.90;19.90;94333.00;;;;10567834;27;45201;-62
2022/07/02 12:09:40;;;;;;;0.00;0.00;;;17.80;59.00;19.90;94322.00;;;;10568413;27;45121;-62
2022/07/02 12:15:03;;;;;;;0.00;0.00;;;17.80;59.00;19.90;94334.00;;;;10568131;27;45228;-62
2022/07/02 12:20:24;;;;;;;0.17;0.00;;;17.80;58.90;19.90;94311.00;;;;10567229;27;45928;-62
2022/07/02 12:25:48;;;;;;;0.00;0.00;;;17.80;58.90;19.90;94306.00;;;;10567478;27;45769;-62
2022/07/02 12:31:09;;;;;;;0.03;0.00;;;17.80;58.90;19.90;94309.00;;;;10567514;27;45237;-62
2022/07/02 12:36:29;;;;;;;0.30;0.10;;;17.80;58.90;19.90;94307.00;;;;10566892;27;45151;-63
2022/07/02 12:41:52;;;;;;;0.10;0.00;;;17.80;58.90;19.90;94300.00;;;;10566924;27;45674;-62
2022/07/02 12:47:23;;;;;;;0.00;0.00;;;17.80;58.90;19.90;94294.00;;;;10566837;27;45775;-62
2022/07/02 12:52:47;;;;;;;0.00;0.00;;;17.80;59.60;19.90;94283.00;;;;10566800;27;45765;-61
2022/07/02 12:58:11;;;;;;;0.03;0.00;;;17.80;58.90;19.90;94272.00;;;;10566102;27;45141;-63
2022/07/02 13:03:32;;;;;;;0.20;0.00;;;17.80;58.90;19.90;94271.00;;;;10566523;27;45873;-63
2022/07/02 13:08:52;;;;;;;0.03;0.00;;;17.80;58.90;19.90;94260.00;;;;10566129;27;45128;-62
2022/07/02 13:14:14;;;;;;;0.00;0.00;;;17.80;58.90;19.90;94269.00;;;;10565811;27;45211;-62
2022/07/02 13:19:37;;;;;;;0.00;0.00;;;17.80;58.90;19.90;94256.00;;;;10565113;27;45142;-63
2022/07/02 13:24:58;;;;;;;0.10;0.10;;;17.80;58.90;19.90;94256.00;;;;10565431;27;45200;-62
2022/07/02 13:30:21;;;;;;;0.10;0.03;;;17.80;58.90;19.90;94260.00;;;;10565153;27;45277;-63
2022/07/02 13:35:42;;;;;;;0.00;0.00;;;17.80;58.90;19.90;94240.00;;;;10565801;27;45123;-63
2022/07/02 13:41:03;;;;;;;0.10;0.00;;;17.80;58.90;19.90;94251.00;;;;10565105;27;45207;-62
2022/07/02 13:46:25;;;;;;;0.00;0.00;;;17.80;58.80;19.90;94252.00;;;;10564641;27;45687;-63
2022/07/02 13:51:46;;;;;;;0.00;0.00;;;17.80;58.80;19.90;94245.00;;;;10564753;27;45127;-63
2022/07/02 13:57:06;;;;;;;0.00;0.00;;;17.80;58.90;19.90;94239.00;;;;10564975;27;45324;-63
2022/07/02 14:02:28;;;;;;;0.00;0.00;;;17.80;58.90;19.90;94248.00;;;;10564114;27;45681;-63
2022/07/02 14:07:49;;;;;;;0.00;0.00;;;17.80;58.90;20.00;94251.00;;;;10563673;27;45173;-62
2022/07/02 14:13:10;;;;;;;0.10;0.10;;;17.80;58.90;19.90;94244.00;;;;10564198;27;45185;-63
2022/07/02 14:18:32;;;;;;;0.10;0.08;;;17.80;58.90;20.00;94248.00;;;;10563454;27;45776;-62
2022/07/02 14:23:52;;;;;;;0.10;0.00;;;17.80;58.90;20.00;94226.00;;;;10563620;27;45144;-63
2022/07/02 14:29:13;;;;;;;0.00;0.00;;;17.80;58.90;19.90;94245.00;;;;10563535;27;45224;-63
2022/07/02 14:34:35;;;;;;;0.10;0.00;;;17.80;58.90;20.00;94243.00;;;;10563542;27;45273;-62
2022/07/02 14:39:55;;;;;;;0.00;0.00;;;17.80;58.90;20.00;94235.00;;;;10562680;27;44883;-62
2022/07/02 14:45:16;;;;;;;0.05;0.00;;;17.80;59.00;20.00;94237.00;;;;10563165;27;45113;-62
2022/07/02 14:50:38;;;;;;;0.17;0.00;;;17.80;58.90;20.00;94236.00;;;;10562827;27;45133;-62
2022/07/02 14:55:58;;;;;;;0.08;0.00;;;17.80;59.00;20.00;94223.00;;;;10562413;27;45329;-63
2022/07/02 15:01:19;;;;;;;0.00;0.00;;;17.80;59.60;20.00;94218.00;;;;10562275;27;45253;-62
2022/07/02 15:06:41;;;;;;;0.08;0.00;;;17.80;58.90;20.00;94221.00;;;;10562385;27;45741;-62
2022/07/02 15:12:03;;;;;;;0.00;0.00;;;17.80;58.90;20.00;94226.00;;;;10561824;27;45297;-62
2022/07/02 15:17:23;;;;;;;0.00;0.00;;;17.80;58.90;20.00;94216.00;;;;10562210;27;45187;-61
2022/07/02 15:22:48;;;;;;;0.00;0.00;;;17.90;59.00;20.00;94191.00;;;;10561704;27;45216;-63
2022/07/02 15:28:22;;;;;;;0.10;0.10;;;17.80;58.90;20.00;94208.00;;;;10562328;27;45279;-62
2022/07/02 15:33:46;;;;;;;0.00;0.00;;;17.80;58.90;20.00;94198.00;;;;10561582;27;45146;-62
2022/07/02 15:39:10;;;;;;;0.05;0.00;;;17.90;59.00;20.00;94188.00;;;;10561450;27;45118;-63
2022/07/02 15:44:31;;;;;;;0.10;0.00;;;17.90;58.90;20.00;94207.00;;;;10561506;27;45730;-63
2022/07/02 15:49:53;;;;;;;0.00;0.00;;;17.90;59.00;20.00;94205.00;;;;10560495;27;45757;-62
2022/07/02 15:55:20;;;;;;;0.25;0.10;;;17.90;58.90;20.00;94197.00;;;;10560903;27;45217;-63
2022/07/02 16:00:41;;;;;;;0.00;0.00;;;17.90;59.60;20.00;94186.00;;;;10560923;27;45860;-62
2022/07/02 16:06:03;;;;;;;0.03;0.03;;;17.90;59.00;20.00;94200.00;;;;10561044;27;45353;-63
2022/07/02 16:11:25;;;;;;;0.10;0.10;;;17.90;59.00;20.00;94181.00;;;;10560502;27;45140;-63
2022/07/02 16:16:47;;;;;;;0.10;0.05;;;17.80;58.90;20.00;94172.00;;;;10560277;27;45828;-63
2022/07/02 16:22:09;;;;;;;0.10;0.10;;;17.90;59.60;20.10;94178.00;;;;10560536;27;45092;-62
2022/07/02 16:27:31;;;;;;;0.10;0.10;;;17.90;58.90;20.00;94187.00;;;;10560036;27;45276;-62
2022/07/02 16:33:01;;;;;;;0.00;0.00;;;17.90;58.90;20.00;94173.00;;;;10562416;27;45177;-62
2022/07/02 16:38:30;;;;;;;0.00;0.00;;;17.90;58.90;20.10;94162.00;;;;10566754;27;45889;-63
2022/07/02 16:43:56;;;;;;;0.00;0.00;;;17.90;58.90;20.10;94169.00;;;;10566325;27;45176;-62
2022/07/02 16:49:17;;;;;;;0.15;0.10;;;17.90;58.80;20.10;94158.00;;;;10566525;27;45205;-62
2022/07/02 16:54:39;;;;;;;0.40;0.03;;;17.90;58.90;20.10;94164.00;;;;10566630;27;45238;-62
2022/07/02 17:00:04;;;;;;;0.10;0.10;;;17.90;58.80;20.10;94149.00;;;;10566041;27;45254;-63
2022/07/02 17:05:25;;;;;;;0.10;0.10;;;17.90;58.80;20.10;94151.00;;;;10566338;27;45675;-62
2022/07/02 17:16:25;;;;;;;0.10;0.10;;;17.90;58.80;20.10;94167.00;;;;10565862;27;45261;-61
2022/07/02 17:21:46;;;;;;;0.00;0.00;;;17.90;58.80;20.10;94155.00;;;;10565952;27;45925;-61
2022/07/02 17:27:07;;;;;;;0.30;0.00;;;18.00;58.80;20.10;94167.00;;;;10565224;27;45671;-61
2022/07/02 17:32:28;;;;;;;0.00;0.00;;;18.00;58.80;20.10;94155.00;;;;10565382;27;45056;-62
2022/07/02 17:37:49;;;;;;;0.10;0.03;;;17.90;58.80;20.10;94156.00;;;;10565533;27;45483;-61
2022/07/02 17:43:09;;;;;;;0.20;0.10;;;17.90;58.70;20.10;94143.00;;;;10604617;22;45149;-63
2022/07/02 17:48:31;;;;;;;0.00;0.00;;;18.00;58.80;20.10;94162.00;;;;10564935;27;45217;-63
2022/07/02 17:53:51;;;;;;;0.38;0.10;;;18.00;58.80;20.10;94160.00;;;;10564936;27;45457;-63
2022/07/02 17:59:12;;;;;;;0.10;0.08;;;18.00;58.80;20.10;94148.00;;;;10564275;27;45803;-63
2022/07/02 18:04:34;;;;;;;0.28;0.20;;;18.00;58.70;20.10;94150.00;;;;10564537;27;45250;-63
2022/07/02 18:09:55;;;;;;;0.28;0.20;;;18.00;59.40;20.10;94144.00;;;;10563769;27;45197;-63
2022/07/02 18:15:15;;;;;;;0.32;0.22;;;18.00;58.70;20.10;94143.00;;;;10564482;27;45166;-64
2022/07/02 18:20:38;;;;;;;0.30;0.20;;;18.00;58.70;20.10;94148.00;;;;10563810;27;45147;-63
2022/07/02 18:25:59;;;;;;;0.20;0.20;;;18.00;58.70;20.20;94143.00;;;;10563900;27;45795;-64
2022/07/02 18:31:19;;;;;;;0.50;0.40;;;18.00;58.70;20.10;94145.00;;;;10563503;27;45868;-63
2022/07/02 18:36:41;;;;;;;0.40;0.40;;;18.00;58.70;20.20;94138.00;;;;10563259;27;45688;-63
2022/07/02 18:42:03;;;;;;;0.77;0.45;;;18.00;58.70;20.20;94139.00;;;;10562656;27;45303;-63
2022/07/02 18:47:23;;;;;;;0.47;0.30;;;18.00;58.70;20.20;94139.00;;;;10563283;27;45323;-63
2022/07/02 18:52:45;;;;;;;0.40;0.40;;;18.00;58.70;20.20;94131.00;;;;10562267;27;45201;-63
2022/07/02 18:58:06;;;;;;;0.63;0.40;;;18.00;58.70;20.20;94128.00;;;;10561977;27;45218;-63
2022/07/02 19:03:26;;;;;;;0.90;0.40;;;18.00;58.70;20.20;94136.00;;;;10562565;27;45245;-63
2022/07/02 19:08:48;;;;;;;0.60;0.45;;;18.00;58.70;20.20;94128.00;;;;10562054;27;45695;-63
2022/07/02 19:14:09;;;;;;;0.52;0.30;;;18.00;58.70;20.20;94142.00;;;;10562060;27;45099;-63
2022/07/02 19:19:30;;;;;;;0.43;0.30;;;18.00;58.70;20.20;94138.00;;;;10561768;27;45217;-63
2022/07/02 19:24:52;;;;;;;0.38;0.28;;;18.00;58.70;20.20;94141.00;;;;10561789;27;45872;-63
2022/07/02 19:35:59;;;;;;;0.53;0.27;;;18.00;58.70;20.20;94149.00;;;;10550477;27;45130;-63
2022/07/02 19:41:21;;;;;;;0.43;0.32;;;18.00;58.70;20.20;94149.00;;;;10560637;27;45151;-63
2022/07/02 19:46:42;;;;;;;0.20;0.20;;;18.00;58.70;20.20;94155.00;;;;10561125;27;45273;-63
2022/07/02 19:52:03;;;;;;;0.38;0.30;;;18.00;58.70;20.20;94162.00;;;;10561387;27;45688;-63
2022/07/02 19:57:26;;;;;;;0.38;0.20;;;18.00;58.70;20.20;94177.00;;;;10561037;27;45220;-64
2022/07/02 20:02:46;;;;;;;0.38;0.20;;;18.00;58.70;20.20;94182.00;;;;10560936;27;45108;-63
2022/07/02 20:08:07;;;;;;;0.40;0.30;;;18.00;58.70;20.20;94183.00;;;;10563330;27;45135;-63
2022/07/02 20:13:28;;;;;;;0.43;0.30;;;18.00;58.70;20.20;94187.00;;;;10567987;27;45188;-63
2022/07/02 20:18:49;;;;;;;0.20;0.20;;;18.00;58.80;20.20;94191.00;;;;10567641;27;45136;-63
2022/07/02 20:24:10;;;;;;;0.43;0.25;;;18.00;58.70;20.20;94192.00;;;;10567650;27;45762;-63
2022/07/02 20:29:32;;;;;;;0.57;0.30;;;18.00;58.80;20.20;94207.00;;;;10567793;27;45507;-63
2022/07/02 20:34:52;;;;;;;0.45;0.20;;;18.00;58.80;20.20;94209.00;;;;10567210;27;45691;-63
2022/07/02 20:40:14;;;;;;;0.63;0.30;;;18.00;58.70;20.20;94211.00;;;;10566396;27;45188;-63
2022/07/02 20:45:36;;;;;;;0.28;0.15;;;18.00;58.80;20.20;94213.00;;;;10566735;27;44891;-63
2022/07/02 20:50:57;;;;;;;0.30;0.30;;;18.00;58.80;20.20;94204.00;;;;10566752;27;45291;-63
2022/07/02 20:56:17;;;;;;;0.20;0.17;;;18.00;58.80;20.20;94208.00;;;;10566520;27;45320;-63
2022/07/02 21:01:40;;;;;;;0.85;0.30;;;18.00;58.80;20.20;94221.00;;;;10566246;27;45127;-63
2022/07/02 21:07:01;;;;;;;0.28;0.10;;;18.00;58.80;20.20;94210.00;;;;10566400;27;45186;-63
2022/07/02 21:12:22;;;;;;;0.38;0.15;;;18.00;58.80;20.20;94205.00;;;;10566183;27;45462;-63
2022/07/02 21:17:44;;;;;;;0.30;0.20;;;18.00;58.80;20.20;94214.00;;;;10565836;27;45778;-63
2022/07/02 21:23:05;;;;;;;0.20;0.20;;;18.00;58.80;20.20;94216.00;;;;10565723;27;45858;-63
2022/07/02 21:28:26;;;;;;;0.45;0.32;;;18.00;58.80;20.20;94219.00;;;;10565616;27;45269;-63
2022/07/02 21:33:48;;;;;;;0.40;0.22;;;18.00;58.80;20.20;94216.00;;;;10565988;27;45666;-64
2022/07/02 21:39:08;;;;;;;0.40;0.30;;;18.00;58.80;20.20;94215.00;;;;10565024;27;45188;-64
2022/07/02 21:44:29;;;;;;;0.85;0.45;;;18.00;58.90;20.10;94201.00;;;;10564742;27;45314;-63
2022/07/02 21:49:51;;;;;;;0.22;0.20;;;18.00;58.80;20.20;94214.00;;;;10564207;27;45778;-63
2022/07/02 21:55:11;;;;;;;0.38;0.22;;;18.00;58.80;20.20;94229.00;;;;10565128;27;45297;-63
2022/07/02 22:00:33;;;;;;;0.20;0.20;;;18.00;58.80;20.10;94232.00;;;;10564308;27;45129;-63
2022/07/02 22:05:55;;;;;;;0.30;0.20;;;18.00;58.80;20.10;94222.00;;;;10564485;27;45788;-63
2022/07/02 22:11:16;;;;;;;0.40;0.25;;;18.00;58.80;20.10;94215.00;;;;10564513;27;45289;-63
2022/07/02 22:16:37;;;;;;;0.30;0.20;;;18.00;58.80;20.20;94220.00;;;;10563637;27;45860;-63
2022/07/02 22:21:58;;;;;;;0.20;0.20;;;18.00;58.80;20.10;94211.00;;;;10563751;27;45779;-63
2022/07/02 22:27:19;;;;;;;0.60;0.20;;;18.00;58.80;20.20;94229.00;;;;10563395;27;45833;-63
2022/07/02 22:32:39;;;;;;;0.13;0.13;;;18.00;58.80;20.10;94225.00;;;;10562422;27;45143;-63
2022/07/02 22:38:01;;;;;;;0.52;0.32;;;18.00;58.80;20.10;94213.00;;;;10562748;27;45192;-63
2022/07/02 22:43:22;;;;;;;0.40;0.22;;;18.00;58.80;20.10;94227.00;;;;10563255;27;45146;-63
2022/07/02 22:48:42;;;;;;;0.17;0.17;;;18.00;58.80;20.10;94230.00;;;;10562846;27;45072;-63
2022/07/02 22:54:04;;;;;;;0.20;0.20;;;18.00;58.80;20.10;94229.00;;;;10563196;27;45392;-63
2022/07/02 22:59:25;;;;;;;0.20;0.20;;;18.00;58.80;20.10;94237.00;;;;10562229;27;45143;-63
2022/07/02 23:04:46;;;;;;;0.20;0.20;;;18.00;58.80;20.10;94245.00;;;;10562590;27;45904;-63
2022/07/02 23:10:08;;;;;;;0.25;0.20;;;17.90;58.80;20.10;94229.00;;;;10562237;27;45199;-63
2022/07/02 23:15:29;;;;;;;0.22;0.20;;;18.00;58.80;20.10;94239.00;;;;10561704;27;45125;-63
2022/07/02 23:20:50;;;;;;;0.35;0.25;;;18.00;58.80;20.10;94234.00;;;;10562189;27;45092;-63
2022/07/02 23:26:12;;;;;;;0.50;0.30;;;18.00;58.80;20.10;94229.00;;;;10561952;27;45096;-64
2022/07/02 23:31:32;;;;;;;0.50;0.30;;;18.00;58.90;20.10;94237.00;;;;10561443;27;45087;-63
2022/07/02 23:36:59;;;;;;;0.30;0.30;;;18.00;58.90;20.10;94237.00;;;;10561432;27;45247;-63
2022/07/02 23:42:21;;;;;;;0.25;0.20;;;18.00;58.90;20.10;94228.00;;;;10563168;27;45769;-62
2022/07/02 23:47:41;;;;;;;0.30;0.30;;;17.90;58.80;20.10;94240.00;;;;10568694;27;45189;-63
2022/07/02 23:53:02;;;;;;;0.50;0.30;;;18.00;58.80;20.10;94231.00;;;;10568559;27;45213;-62
2022/07/02 23:58:25;;;;;;;0.32;0.20;;;17.90;58.80;20.10;94241.00;;;;10568035;27;45141;-62
